sensor_id;sensor_type;location;lat;lon;timestamp;P1;durP1;ratioP1;P2;durP2;ratioP2
53843;SDS011;39744;53.314;5.710;2022-12-24T00:01:50;110.40;;;24.85;;
53843;SDS011;39744;53.314;5.710;2022-12-24T00:04:16;118.07;;;24.30;;
53843;SDS011;39744;53.314;5.710;2022-12-24T00:06:41;103.38;;;23.17;;
53843;SDS011;39744;53.314;5.710;2022-12-24T00:09:07;84.85;;;21.88;;
53843;SDS011;39744;53.314;5.710;2022-12-24T00:11:34;103.15;;;24.88;;
53843;SDS011;39744;53.314;5.710;2022-12-24T00:13:59;97.70;;;22.60;;
53843;SDS011;39744;53.314;5.710;2022-12-24T00:16:25;99.05;;;22.92;;
53843;SDS011;39744;53.314;5.710;2022-12-24T00:18:50;85.35;;;22.85;;
53843;SDS011;39744;53.314;5.710;2022-12-24T00:21:17;91.63;;;21.90;;
53843;SDS011;39744;53.314;5.710;2022-12-24T00:23:42;105.43;;;23.50;;
53843;SDS011;39744;53.314;5.710;2022-12-24T00:26:08;96.25;;;23.15;;
53843;SDS011;39744;53.314;5.710;2022-12-24T00:28:34;113.18;;;24.48;;
53843;SDS011;39744;53.314;5.710;2022-12-24T00:31:05;86.85;;;22.17;;
53843;SDS011;39744;53.314;5.710;2022-12-24T00:33:35;87.90;;;21.63;;
53843;SDS011;39744;53.314;5.710;2022-12-24T00:36:00;114.43;;;23.95;;
53843;SDS011;39744;53.314;5.710;2022-12-24T00:38:26;124.07;;;25.38;;
53843;SDS011;39744;53.314;5.710;2022-12-24T00:40:56;105.45;;;23.80;;
53843;SDS011;39744;53.314;5.710;2022-12-24T00:43:23;95.20;;;22.48;;
53843;SDS011;39744;53.314;5.710;2022-12-24T00:45:49;104.30;;;23.05;;
53843;SDS011;39744;53.314;5.710;2022-12-24T00:48:14;111.95;;;23.75;;
53843;SDS011;39744;53.314;5.710;2022-12-24T00:50:40;107.05;;;23.77;;
53843;SDS011;39744;53.314;5.710;2022-12-24T00:53:05;121.93;;;24.02;;
53843;SDS011;39744;53.314;5.710;2022-12-24T00:55:31;131.85;;;25.42;;
53843;SDS011;39744;53.314;5.710;2022-12-24T00:57:56;107.10;;;25.42;;
53843;SDS011;39744;53.314;5.710;2022-12-24T01:00:22;118.28;;;25.73;;
53843;SDS011;39744;53.314;5.710;2022-12-24T01:02:48;120.07;;;25.88;;
53843;SDS011;39744;53.314;5.710;2022-12-24T01:05:14;115.90;;;23.73;;
53843;SDS011;39744;53.314;5.710;2022-12-24T01:07:42;125.63;;;24.92;;
53843;SDS011;39744;53.314;5.710;2022-12-24T01:10:09;126.00;;;27.48;;
53843;SDS011;39744;53.314;5.710;2022-12-24T01:12:37;134.57;;;26.50;;
53843;SDS011;39744;53.314;5.710;2022-12-24T01:15:03;173.77;;;31.00;;
53843;SDS011;39744;53.314;5.710;2022-12-24T01:17:30;117.70;;;24.40;;
53843;SDS011;39744;53.314;5.710;2022-12-24T01:19:57;114.03;;;25.60;;
53843;SDS011;39744;53.314;5.710;2022-12-24T01:22:22;101.47;;;23.15;;
53843;SDS011;39744;53.314;5.710;2022-12-24T01:24:48;150.60;;;27.42;;
53843;SDS011;39744;53.314;5.710;2022-12-24T01:27:13;120.55;;;27.15;;
53843;SDS011;39744;53.314;5.710;2022-12-24T01:29:39;119.72;;;26.60;;
53843;SDS011;39744;53.314;5.710;2022-12-24T01:32:04;201.88;;;32.35;;
53843;SDS011;39744;53.314;5.710;2022-12-24T01:34:30;159.07;;;29.45;;
53843;SDS011;39744;53.314;5.710;2022-12-24T01:36:56;156.85;;;29.13;;
53843;SDS011;39744;53.314;5.710;2022-12-24T01:39:21;166.65;;;29.60;;
53843;SDS011;39744;53.314;5.710;2022-12-24T01:41:47;152.55;;;27.55;;
53843;SDS011;39744;53.314;5.710;2022-12-24T01:44:33;158.75;;;28.70;;
53843;SDS011;39744;53.314;5.710;2022-12-24T01:47:03;129.15;;;25.63;;
53843;SDS011;39744;53.314;5.710;2022-12-24T01:49:48;138.05;;;27.33;;
53843;SDS011;39744;53.314;5.710;2022-12-24T01:52:19;150.85;;;28.13;;
53843;SDS011;39744;53.314;5.710;2022-12-24T01:54:47;142.93;;;28.15;;
53843;SDS011;39744;53.314;5.710;2022-12-24T01:57:26;151.82;;;28.95;;
53843;SDS011;39744;53.314;5.710;2022-12-24T02:00:01;163.93;;;29.90;;
53843;SDS011;39744;53.314;5.710;2022-12-24T02:02:32;181.63;;;28.60;;
53843;SDS011;39744;53.314;5.710;2022-12-24T02:05:07;138.50;;;27.75;;
53843;SDS011;39744;53.314;5.710;2022-12-24T02:07:38;159.55;;;29.85;;
53843;SDS011;39744;53.314;5.710;2022-12-24T02:10:06;137.32;;;27.95;;
53843;SDS011;39744;53.314;5.710;2022-12-24T02:12:34;182.38;;;31.42;;
53843;SDS011;39744;53.314;5.710;2022-12-24T02:15:03;114.68;;;25.90;;
53843;SDS011;39744;53.314;5.710;2022-12-24T02:25:31;165.30;;;30.80;;
53843;SDS011;39744;53.314;5.710;2022-12-24T02:31:03;130.65;;;26.38;;
53843;SDS011;39744;53.314;5.710;2022-12-24T02:33:40;141.88;;;29.13;;
53843;SDS011;39744;53.314;5.710;2022-12-24T02:36:18;138.35;;;27.75;;
53843;SDS011;39744;53.314;5.710;2022-12-24T02:38:55;162.38;;;29.60;;
53843;SDS011;39744;53.314;5.710;2022-12-24T02:41:35;138.18;;;28.73;;
53843;SDS011;39744;53.314;5.710;2022-12-24T02:44:23;112.25;;;26.45;;
53843;SDS011;39744;53.314;5.710;2022-12-24T02:46:51;112.70;;;25.98;;
53843;SDS011;39744;53.314;5.710;2022-12-24T02:49:17;115.57;;;25.55;;
53843;SDS011;39744;53.314;5.710;2022-12-24T02:51:43;95.38;;;24.48;;
53843;SDS011;39744;53.314;5.710;2022-12-24T02:54:09;55.05;;;19.30;;
53843;SDS011;39744;53.314;5.710;2022-12-24T02:59:17;88.18;;;21.88;;
53843;SDS011;39744;53.314;5.710;2022-12-24T03:10:13;55.25;;;18.90;;
53843;SDS011;39744;53.314;5.710;2022-12-24T03:12:43;49.05;;;16.52;;
53843;SDS011;39744;53.314;5.710;2022-12-24T03:15:15;40.83;;;16.17;;
53843;SDS011;39744;53.314;5.710;2022-12-24T03:17:43;36.38;;;14.48;;
53843;SDS011;39744;53.314;5.710;2022-12-24T03:20:11;42.33;;;15.23;;
53843;SDS011;39744;53.314;5.710;2022-12-24T03:22:42;29.63;;;11.93;;
53843;SDS011;39744;53.314;5.710;2022-12-24T03:25:08;31.85;;;10.82;;
53843;SDS011;39744;53.314;5.710;2022-12-24T03:27:34;24.60;;;8.07;;
53843;SDS011;39744;53.314;5.710;2022-12-24T03:30:02;24.80;;;8.30;;
53843;SDS011;39744;53.314;5.710;2022-12-24T03:32:30;24.60;;;7.65;;
53843;SDS011;39744;53.314;5.710;2022-12-24T03:34:56;18.27;;;6.40;;
53843;SDS011;39744;53.314;5.710;2022-12-24T03:37:22;23.67;;;6.68;;
53843;SDS011;39744;53.314;5.710;2022-12-24T03:39:47;19.65;;;7.00;;
53843;SDS011;39744;53.314;5.710;2022-12-24T03:42:13;25.80;;;8.20;;
53843;SDS011;39744;53.314;5.710;2022-12-24T03:44:39;21.25;;;6.57;;
53843;SDS011;39744;53.314;5.710;2022-12-24T03:47:04;24.67;;;7.85;;
53843;SDS011;39744;53.314;5.710;2022-12-24T03:49:30;24.63;;;7.32;;
53843;SDS011;39744;53.314;5.710;2022-12-24T03:51:55;22.05;;;7.18;;
53843;SDS011;39744;53.314;5.710;2022-12-24T03:54:21;27.23;;;6.95;;
53843;SDS011;39744;53.314;5.710;2022-12-24T03:56:47;30.17;;;7.80;;
53843;SDS011;39744;53.314;5.710;2022-12-24T03:59:12;26.42;;;7.55;;
53843;SDS011;39744;53.314;5.710;2022-12-24T04:01:38;31.73;;;7.55;;
53843;SDS011;39744;53.314;5.710;2022-12-24T04:04:04;30.98;;;7.55;;
53843;SDS011;39744;53.314;5.710;2022-12-24T04:06:29;38.80;;;8.50;;
53843;SDS011;39744;53.314;5.710;2022-12-24T04:08:55;44.67;;;7.57;;
53843;SDS011;39744;53.314;5.710;2022-12-24T04:11:23;39.50;;;7.55;;
53843;SDS011;39744;53.314;5.710;2022-12-24T04:13:48;40.08;;;7.10;;
53843;SDS011;39744;53.314;5.710;2022-12-24T04:16:14;36.35;;;6.97;;
53843;SDS011;39744;53.314;5.710;2022-12-24T04:18:41;44.80;;;6.30;;
53843;SDS011;39744;53.314;5.710;2022-12-24T04:21:07;37.35;;;6.93;;
53843;SDS011;39744;53.314;5.710;2022-12-24T04:23:33;41.30;;;6.93;;
53843;SDS011;39744;53.314;5.710;2022-12-24T04:26:02;32.72;;;6.43;;
53843;SDS011;39744;53.314;5.710;2022-12-24T04:28:29;48.67;;;6.40;;
53843;SDS011;39744;53.314;5.710;2022-12-24T04:30:59;38.40;;;6.22;;
53843;SDS011;39744;53.314;5.710;2022-12-24T04:33:26;45.33;;;6.60;;
53843;SDS011;39744;53.314;5.710;2022-12-24T04:35:51;51.42;;;6.22;;
53843;SDS011;39744;53.314;5.710;2022-12-24T04:38:17;40.47;;;6.78;;
53843;SDS011;39744;53.314;5.710;2022-12-24T04:40:43;41.72;;;6.93;;
53843;SDS011;39744;53.314;5.710;2022-12-24T04:43:09;47.08;;;8.02;;
53843;SDS011;39744;53.314;5.710;2022-12-24T04:45:34;58.03;;;7.50;;
53843;SDS011;39744;53.314;5.710;2022-12-24T04:48:00;41.92;;;6.18;;
53843;SDS011;39744;53.314;5.710;2022-12-24T04:50:26;56.05;;;6.90;;
53843;SDS011;39744;53.314;5.710;2022-12-24T04:52:51;49.83;;;6.80;;
53843;SDS011;39744;53.314;5.710;2022-12-24T04:55:17;53.95;;;7.95;;
53843;SDS011;39744;53.314;5.710;2022-12-24T04:57:42;54.65;;;6.97;;
53843;SDS011;39744;53.314;5.710;2022-12-24T05:00:08;50.72;;;8.10;;
53843;SDS011;39744;53.314;5.710;2022-12-24T05:02:34;47.88;;;7.20;;
53843;SDS011;39744;53.314;5.710;2022-12-24T05:05:00;48.58;;;7.20;;
53843;SDS011;39744;53.314;5.710;2022-12-24T05:07:25;55.83;;;7.90;;
53843;SDS011;39744;53.314;5.710;2022-12-24T05:09:51;41.90;;;7.07;;
53843;SDS011;39744;53.314;5.710;2022-12-24T05:12:17;50.05;;;7.05;;
53843;SDS011;39744;53.314;5.710;2022-12-24T05:14:42;52.22;;;7.40;;
53843;SDS011;39744;53.314;5.710;2022-12-24T05:17:08;53.83;;;7.15;;
53843;SDS011;39744;53.314;5.710;2022-12-24T05:19:33;58.50;;;8.88;;
53843;SDS011;39744;53.314;5.710;2022-12-24T05:21:59;61.20;;;7.57;;
53843;SDS011;39744;53.314;5.710;2022-12-24T05:24:43;41.00;;;7.60;;
53843;SDS011;39744;53.314;5.710;2022-12-24T05:27:28;55.90;;;8.05;;
53843;SDS011;39744;53.314;5.710;2022-12-24T05:29:54;59.92;;;7.35;;
53843;SDS011;39744;53.314;5.710;2022-12-24T05:32:19;45.05;;;7.55;;
53843;SDS011;39744;53.314;5.710;2022-12-24T05:34:45;65.85;;;8.13;;
53843;SDS011;39744;53.314;5.710;2022-12-24T05:37:10;45.60;;;7.30;;
53843;SDS011;39744;53.314;5.710;2022-12-24T05:39:36;58.50;;;8.13;;
53843;SDS011;39744;53.314;5.710;2022-12-24T05:42:02;50.45;;;7.47;;
53843;SDS011;39744;53.314;5.710;2022-12-24T05:44:27;55.00;;;7.65;;
53843;SDS011;39744;53.314;5.710;2022-12-24T05:46:53;55.70;;;9.15;;
53843;SDS011;39744;53.314;5.710;2022-12-24T05:49:18;53.83;;;8.48;;
53843;SDS011;39744;53.314;5.710;2022-12-24T05:51:44;58.13;;;7.25;;
53843;SDS011;39744;53.314;5.710;2022-12-24T05:54:10;62.70;;;8.23;;
53843;SDS011;39744;53.314;5.710;2022-12-24T05:56:35;57.08;;;7.97;;
53843;SDS011;39744;53.314;5.710;2022-12-24T05:59:01;51.08;;;6.90;;
53843;SDS011;39744;53.314;5.710;2022-12-24T06:01:26;49.42;;;6.88;;
53843;SDS011;39744;53.314;5.710;2022-12-24T06:03:52;69.65;;;8.15;;
53843;SDS011;39744;53.314;5.710;2022-12-24T06:06:19;54.25;;;7.22;;
53843;SDS011;39744;53.314;5.710;2022-12-24T06:08:50;61.05;;;7.22;;
53843;SDS011;39744;53.314;5.710;2022-12-24T06:11:17;57.85;;;8.13;;
53843;SDS011;39744;53.314;5.710;2022-12-24T06:13:44;66.65;;;8.35;;
53843;SDS011;39744;53.314;5.710;2022-12-24T06:16:11;53.65;;;7.18;;
53843;SDS011;39744;53.314;5.710;2022-12-24T06:18:41;58.20;;;7.47;;
53843;SDS011;39744;53.314;5.710;2022-12-24T06:21:08;54.28;;;8.10;;
53843;SDS011;39744;53.314;5.710;2022-12-24T06:23:35;53.67;;;6.97;;
53843;SDS011;39744;53.314;5.710;2022-12-24T06:26:02;54.78;;;7.20;;
53843;SDS011;39744;53.314;5.710;2022-12-24T06:28:32;50.08;;;7.68;;
53843;SDS011;39744;53.314;5.710;2022-12-24T06:31:00;50.38;;;7.40;;
53843;SDS011;39744;53.314;5.710;2022-12-24T06:33:26;56.00;;;8.32;;
53843;SDS011;39744;53.314;5.710;2022-12-24T06:35:52;49.53;;;7.43;;
53843;SDS011;39744;53.314;5.710;2022-12-24T06:38:17;50.47;;;6.88;;
53843;SDS011;39744;53.314;5.710;2022-12-24T06:40:43;45.28;;;6.28;;
53843;SDS011;39744;53.314;5.710;2022-12-24T06:43:10;54.72;;;7.82;;
53843;SDS011;39744;53.314;5.710;2022-12-24T06:45:36;55.63;;;7.63;;
53843;SDS011;39744;53.314;5.710;2022-12-24T06:48:02;48.08;;;6.53;;
53843;SDS011;39744;53.314;5.710;2022-12-24T06:50:28;63.85;;;7.25;;
53843;SDS011;39744;53.314;5.710;2022-12-24T06:52:54;61.40;;;6.80;;
53843;SDS011;39744;53.314;5.710;2022-12-24T06:55:19;66.60;;;6.93;;
53843;SDS011;39744;53.314;5.710;2022-12-24T06:57:45;50.80;;;6.40;;
53843;SDS011;39744;53.314;5.710;2022-12-24T07:00:11;52.78;;;6.20;;
53843;SDS011;39744;53.314;5.710;2022-12-24T07:02:38;50.78;;;6.78;;
53843;SDS011;39744;53.314;5.710;2022-12-24T07:05:05;53.60;;;6.65;;
53843;SDS011;39744;53.314;5.710;2022-12-24T07:07:31;53.50;;;7.28;;
53843;SDS011;39744;53.314;5.710;2022-12-24T07:09:56;41.25;;;6.43;;
53843;SDS011;39744;53.314;5.710;2022-12-24T07:12:22;48.47;;;7.20;;
53843;SDS011;39744;53.314;5.710;2022-12-24T07:14:47;49.90;;;6.57;;
53843;SDS011;39744;53.314;5.710;2022-12-24T07:17:13;50.33;;;6.53;;
53843;SDS011;39744;53.314;5.710;2022-12-24T07:19:39;51.38;;;6.43;;
53843;SDS011;39744;53.314;5.710;2022-12-24T07:22:04;66.57;;;6.90;;
53843;SDS011;39744;53.314;5.710;2022-12-24T07:24:30;48.85;;;7.00;;
53843;SDS011;39744;53.314;5.710;2022-12-24T07:26:55;47.65;;;6.47;;
53843;SDS011;39744;53.314;5.710;2022-12-24T07:29:21;60.72;;;6.93;;
53843;SDS011;39744;53.314;5.710;2022-12-24T07:31:46;50.75;;;6.97;;
53843;SDS011;39744;53.314;5.710;2022-12-24T07:34:12;54.20;;;6.60;;
53843;SDS011;39744;53.314;5.710;2022-12-24T07:36:38;39.08;;;6.60;;
53843;SDS011;39744;53.314;5.710;2022-12-24T07:39:03;44.00;;;6.38;;
53843;SDS011;39744;53.314;5.710;2022-12-24T07:41:29;55.58;;;6.78;;
53843;SDS011;39744;53.314;5.710;2022-12-24T07:43:54;50.17;;;7.40;;
53843;SDS011;39744;53.314;5.710;2022-12-24T07:46:20;46.00;;;6.90;;
53843;SDS011;39744;53.314;5.710;2022-12-24T07:48:46;56.63;;;7.50;;
53843;SDS011;39744;53.314;5.710;2022-12-24T07:51:12;54.33;;;5.93;;
53843;SDS011;39744;53.314;5.710;2022-12-24T07:53:37;58.30;;;6.80;;
53843;SDS011;39744;53.314;5.710;2022-12-24T07:56:03;57.20;;;6.78;;
53843;SDS011;39744;53.314;5.710;2022-12-24T07:58:28;58.70;;;7.07;;
53843;SDS011;39744;53.314;5.710;2022-12-24T08:00:57;50.25;;;6.88;;
53843;SDS011;39744;53.314;5.710;2022-12-24T08:03:24;67.10;;;7.65;;
53843;SDS011;39744;53.314;5.710;2022-12-24T08:05:50;62.38;;;6.50;;
53843;SDS011;39744;53.314;5.710;2022-12-24T08:08:19;56.53;;;6.70;;
53843;SDS011;39744;53.314;5.710;2022-12-24T08:10:45;55.08;;;7.38;;
53843;SDS011;39744;53.314;5.710;2022-12-24T08:13:12;52.33;;;7.18;;
53843;SDS011;39744;53.314;5.710;2022-12-24T08:15:37;60.85;;;7.18;;
53843;SDS011;39744;53.314;5.710;2022-12-24T08:18:03;53.35;;;7.00;;
53843;SDS011;39744;53.314;5.710;2022-12-24T08:20:29;45.92;;;6.75;;
53843;SDS011;39744;53.314;5.710;2022-12-24T08:22:55;43.05;;;6.10;;
53843;SDS011;39744;53.314;5.710;2022-12-24T08:25:21;48.60;;;6.38;;
53843;SDS011;39744;53.314;5.710;2022-12-24T08:27:46;59.45;;;6.75;;
53843;SDS011;39744;53.314;5.710;2022-12-24T08:30:12;54.50;;;6.70;;
53843;SDS011;39744;53.314;5.710;2022-12-24T08:32:38;53.25;;;7.57;;
53843;SDS011;39744;53.314;5.710;2022-12-24T08:35:04;49.15;;;6.05;;
53843;SDS011;39744;53.314;5.710;2022-12-24T08:37:30;52.83;;;7.53;;
53843;SDS011;39744;53.314;5.710;2022-12-24T08:39:56;49.53;;;8.00;;
53843;SDS011;39744;53.314;5.710;2022-12-24T08:42:22;45.05;;;6.85;;
53843;SDS011;39744;53.314;5.710;2022-12-24T08:44:47;41.58;;;6.32;;
53843;SDS011;39744;53.314;5.710;2022-12-24T08:47:13;44.38;;;7.22;;
53843;SDS011;39744;53.314;5.710;2022-12-24T08:49:38;45.08;;;6.32;;
53843;SDS011;39744;53.314;5.710;2022-12-24T08:52:04;50.97;;;6.97;;
53843;SDS011;39744;53.314;5.710;2022-12-24T08:54:30;59.17;;;7.80;;
53843;SDS011;39744;53.314;5.710;2022-12-24T08:56:55;37.63;;;6.32;;
53843;SDS011;39744;53.314;5.710;2022-12-24T08:59:21;46.53;;;7.30;;
53843;SDS011;39744;53.314;5.710;2022-12-24T09:01:47;46.50;;;6.03;;
53843;SDS011;39744;53.314;5.710;2022-12-24T09:04:12;47.85;;;6.65;;
53843;SDS011;39744;53.314;5.710;2022-12-24T09:06:38;46.50;;;7.60;;
53843;SDS011;39744;53.314;5.710;2022-12-24T09:09:04;46.47;;;6.53;;
53843;SDS011;39744;53.314;5.710;2022-12-24T09:11:30;51.67;;;6.03;;
53843;SDS011;39744;53.314;5.710;2022-12-24T09:13:59;56.38;;;7.22;;
53843;SDS011;39744;53.314;5.710;2022-12-24T09:16:24;45.17;;;6.15;;
53843;SDS011;39744;53.314;5.710;2022-12-24T09:18:50;43.63;;;6.65;;
53843;SDS011;39744;53.314;5.710;2022-12-24T09:21:16;50.30;;;6.43;;
53843;SDS011;39744;53.314;5.710;2022-12-24T09:23:43;48.08;;;7.43;;
53843;SDS011;39744;53.314;5.710;2022-12-24T09:26:12;40.80;;;5.93;;
53843;SDS011;39744;53.314;5.710;2022-12-24T09:28:46;41.90;;;7.00;;
53843;SDS011;39744;53.314;5.710;2022-12-24T09:31:12;49.03;;;6.28;;
53843;SDS011;39744;53.314;5.710;2022-12-24T09:33:39;43.38;;;6.65;;
53843;SDS011;39744;53.314;5.710;2022-12-24T09:36:05;51.20;;;7.72;;
53843;SDS011;39744;53.314;5.710;2022-12-24T09:38:32;48.67;;;6.63;;
53843;SDS011;39744;53.314;5.710;2022-12-24T09:40:58;47.00;;;6.88;;
53843;SDS011;39744;53.314;5.710;2022-12-24T09:43:34;45.63;;;6.30;;
53843;SDS011;39744;53.314;5.710;2022-12-24T09:48:34;40.28;;;5.80;;
53843;SDS011;39744;53.314;5.710;2022-12-24T09:51:05;47.45;;;5.93;;
53843;SDS011;39744;53.314;5.710;2022-12-24T09:53:38;46.28;;;7.07;;
53843;SDS011;39744;53.314;5.710;2022-12-24T09:56:13;38.05;;;6.50;;
53843;SDS011;39744;53.314;5.710;2022-12-24T09:58:53;46.20;;;5.53;;
53843;SDS011;39744;53.314;5.710;2022-12-24T10:01:24;35.75;;;5.70;;
53843;SDS011;39744;53.314;5.710;2022-12-24T10:03:53;36.28;;;6.93;;
53843;SDS011;39744;53.314;5.710;2022-12-24T10:06:19;50.47;;;6.00;;
53843;SDS011;39744;53.314;5.710;2022-12-24T10:11:49;34.55;;;6.07;;
53843;SDS011;39744;53.314;5.710;2022-12-24T10:14:45;46.15;;;6.60;;
53843;SDS011;39744;53.314;5.710;2022-12-24T10:22:58;47.08;;;5.80;;
53843;SDS011;39744;53.314;5.710;2022-12-24T10:25:41;41.38;;;6.53;;
53843;SDS011;39744;53.314;5.710;2022-12-24T10:28:46;40.65;;;5.82;;
53843;SDS011;39744;53.314;5.710;2022-12-24T10:31:12;35.10;;;6.47;;
53843;SDS011;39744;53.314;5.710;2022-12-24T10:36:16;39.75;;;6.80;;
53843;SDS011;39744;53.314;5.710;2022-12-24T10:38:44;39.28;;;5.22;;
53843;SDS011;39744;53.314;5.710;2022-12-24T10:41:11;43.97;;;5.72;;
53843;SDS011;39744;53.314;5.710;2022-12-24T10:43:38;29.77;;;5.15;;
53843;SDS011;39744;53.314;5.710;2022-12-24T10:46:12;36.25;;;5.30;;
53843;SDS011;39744;53.314;5.710;2022-12-24T10:48:50;38.38;;;5.10;;
53843;SDS011;39744;53.314;5.710;2022-12-24T10:51:31;33.30;;;4.40;;
53843;SDS011;39744;53.314;5.710;2022-12-24T10:54:18;35.33;;;5.25;;
53843;SDS011;39744;53.314;5.710;2022-12-24T10:56:46;23.55;;;4.00;;
53843;SDS011;39744;53.314;5.710;2022-12-24T10:59:35;24.92;;;4.82;;
53843;SDS011;39744;53.314;5.710;2022-12-24T11:04:58;35.80;;;5.75;;
53843;SDS011;39744;53.314;5.710;2022-12-24T11:07:25;24.58;;;4.80;;
53843;SDS011;39744;53.314;5.710;2022-12-24T11:10:00;34.08;;;5.45;;
53843;SDS011;39744;53.314;5.710;2022-12-24T11:12:37;30.33;;;5.40;;
53843;SDS011;39744;53.314;5.710;2022-12-24T11:17:41;30.52;;;5.10;;
53843;SDS011;39744;53.314;5.710;2022-12-24T11:20:17;38.25;;;5.75;;
53843;SDS011;39744;53.314;5.710;2022-12-24T11:22:47;21.52;;;4.50;;
53843;SDS011;39744;53.314;5.710;2022-12-24T11:25:19;22.38;;;4.20;;
53843;SDS011;39744;53.314;5.710;2022-12-24T11:27:56;29.40;;;4.45;;
53843;SDS011;39744;53.314;5.710;2022-12-24T11:30:35;25.80;;;4.35;;
53843;SDS011;39744;53.314;5.710;2022-12-24T11:35:30;23.45;;;4.18;;
53843;SDS011;39744;53.314;5.710;2022-12-24T11:40:29;36.47;;;5.47;;
53843;SDS011;39744;53.314;5.710;2022-12-24T11:42:59;31.40;;;4.93;;
53843;SDS011;39744;53.314;5.710;2022-12-24T11:45:27;30.88;;;4.93;;
53843;SDS011;39744;53.314;5.710;2022-12-24T11:47:55;19.35;;;3.67;;
53843;SDS011;39744;53.314;5.710;2022-12-24T11:50:31;34.50;;;4.43;;
53843;SDS011;39744;53.314;5.710;2022-12-24T11:55:47;26.88;;;5.15;;
53843;SDS011;39744;53.314;5.710;2022-12-24T12:04:02;24.70;;;4.40;;
53843;SDS011;39744;53.314;5.710;2022-12-24T12:09:13;26.00;;;4.00;;
53843;SDS011;39744;53.314;5.710;2022-12-24T12:11:48;20.35;;;3.80;;
53843;SDS011;39744;53.314;5.710;2022-12-24T12:14:21;20.05;;;4.38;;
53843;SDS011;39744;53.314;5.710;2022-12-24T12:19:32;25.33;;;4.57;;
53843;SDS011;39744;53.314;5.710;2022-12-24T12:22:18;26.52;;;4.45;;
53843;SDS011;39744;53.314;5.710;2022-12-24T12:25:06;34.55;;;5.13;;
53843;SDS011;39744;53.314;5.710;2022-12-24T12:28:01;31.48;;;3.90;;
53843;SDS011;39744;53.314;5.710;2022-12-24T12:30:30;22.55;;;3.28;;
53843;SDS011;39744;53.314;5.710;2022-12-24T12:35:46;19.67;;;3.88;;
53843;SDS011;39744;53.314;5.710;2022-12-24T12:43:22;20.53;;;3.80;;
53843;SDS011;39744;53.314;5.710;2022-12-24T12:46:10;25.35;;;4.18;;
53843;SDS011;39744;53.314;5.710;2022-12-24T12:49:21;24.83;;;4.68;;
53843;SDS011;39744;53.314;5.710;2022-12-24T12:57:25;30.90;;;4.43;;
53843;SDS011;39744;53.314;5.710;2022-12-24T13:00:01;24.65;;;4.90;;
53843;SDS011;39744;53.314;5.710;2022-12-24T13:05:11;29.88;;;4.57;;
53843;SDS011;39744;53.314;5.710;2022-12-24T13:08:04;24.08;;;4.25;;
53843;SDS011;39744;53.314;5.710;2022-12-24T13:10:48;27.42;;;4.00;;
53843;SDS011;39744;53.314;5.710;2022-12-24T13:13:22;27.33;;;4.50;;
53843;SDS011;39744;53.314;5.710;2022-12-24T13:18:55;24.55;;;4.40;;
53843;SDS011;39744;53.314;5.710;2022-12-24T13:21:41;30.75;;;5.07;;
53843;SDS011;39744;53.314;5.710;2022-12-24T13:24:19;30.15;;;4.38;;
53843;SDS011;39744;53.314;5.710;2022-12-24T13:27:01;26.15;;;4.05;;
53843;SDS011;39744;53.314;5.710;2022-12-24T13:29:39;30.75;;;4.68;;
53843;SDS011;39744;53.314;5.710;2022-12-24T13:34:55;23.80;;;4.65;;
53843;SDS011;39744;53.314;5.710;2022-12-24T13:43:14;29.10;;;4.88;;
53843;SDS011;39744;53.314;5.710;2022-12-24T13:50:47;29.20;;;4.93;;
53843;SDS011;39744;53.314;5.710;2022-12-24T13:56:09;27.43;;;5.00;;
53843;SDS011;39744;53.314;5.710;2022-12-24T13:58:48;26.40;;;4.22;;
53843;SDS011;39744;53.314;5.710;2022-12-24T14:01:31;32.60;;;4.38;;
53843;SDS011;39744;53.314;5.710;2022-12-24T14:03:59;25.65;;;4.43;;
53843;SDS011;39744;53.314;5.710;2022-12-24T14:06:31;28.45;;;4.85;;
53843;SDS011;39744;53.314;5.710;2022-12-24T14:09:10;31.17;;;4.40;;
53843;SDS011;39744;53.314;5.710;2022-12-24T14:14:30;25.60;;;4.45;;
53843;SDS011;39744;53.314;5.710;2022-12-24T14:16:57;21.40;;;4.57;;
53843;SDS011;39744;53.314;5.710;2022-12-24T14:19:26;28.17;;;3.85;;
53843;SDS011;39744;53.314;5.710;2022-12-24T14:22:18;34.80;;;5.20;;
53843;SDS011;39744;53.314;5.710;2022-12-24T14:27:37;34.08;;;4.32;;
53843;SDS011;39744;53.314;5.710;2022-12-24T14:30:13;36.78;;;4.93;;
53843;SDS011;39744;53.314;5.710;2022-12-24T14:32:43;27.20;;;5.30;;
53843;SDS011;39744;53.314;5.710;2022-12-24T14:35:14;24.48;;;4.53;;
53843;SDS011;39744;53.314;5.710;2022-12-24T14:37:59;30.67;;;4.30;;
53843;SDS011;39744;53.314;5.710;2022-12-24T14:40:31;32.55;;;4.00;;
53843;SDS011;39744;53.314;5.710;2022-12-24T14:43:18;27.00;;;5.20;;
53843;SDS011;39744;53.314;5.710;2022-12-24T14:54:40;30.83;;;4.40;;
53843;SDS011;39744;53.314;5.710;2022-12-24T14:59:46;30.30;;;4.68;;
53843;SDS011;39744;53.314;5.710;2022-12-24T15:05:15;32.75;;;5.03;;
53843;SDS011;39744;53.314;5.710;2022-12-24T15:12:55;37.97;;;5.55;;
53843;SDS011;39744;53.314;5.710;2022-12-24T15:15:25;28.52;;;4.35;;
53843;SDS011;39744;53.314;5.710;2022-12-24T15:17:51;31.10;;;4.82;;
53843;SDS011;39744;53.314;5.710;2022-12-24T15:20:22;31.02;;;4.78;;
53843;SDS011;39744;53.314;5.710;2022-12-24T15:22:52;27.95;;;5.13;;
53843;SDS011;39744;53.314;5.710;2022-12-24T15:25:38;33.85;;;5.10;;
53843;SDS011;39744;53.314;5.710;2022-12-24T15:28:13;26.90;;;4.53;;
53843;SDS011;39744;53.314;5.710;2022-12-24T15:30:43;25.05;;;4.45;;
53843;SDS011;39744;53.314;5.710;2022-12-24T15:33:10;37.40;;;4.20;;
53843;SDS011;39744;53.314;5.710;2022-12-24T15:38:22;32.28;;;4.78;;
53843;SDS011;39744;53.314;5.710;2022-12-24T15:40:49;30.83;;;5.10;;
53843;SDS011;39744;53.314;5.710;2022-12-24T15:43:16;37.50;;;5.88;;
53843;SDS011;39744;53.314;5.710;2022-12-24T15:45:43;26.17;;;4.68;;
53843;SDS011;39744;53.314;5.710;2022-12-24T15:48:12;36.13;;;4.70;;
53843;SDS011;39744;53.314;5.710;2022-12-24T15:50:48;41.35;;;5.88;;
53843;SDS011;39744;53.314;5.710;2022-12-24T15:53:21;29.30;;;4.38;;
53843;SDS011;39744;53.314;5.710;2022-12-24T15:58:35;30.05;;;5.10;;
53843;SDS011;39744;53.314;5.710;2022-12-24T16:03:34;33.28;;;5.10;;
53843;SDS011;39744;53.314;5.710;2022-12-24T16:06:05;30.35;;;4.75;;
53843;SDS011;39744;53.314;5.710;2022-12-24T16:08:33;29.13;;;5.03;;
53843;SDS011;39744;53.314;5.710;2022-12-24T16:14:28;29.88;;;4.57;;
53843;SDS011;39744;53.314;5.710;2022-12-24T16:16:39;32.33;;;4.85;;
53843;SDS011;39744;53.314;5.710;2022-12-24T16:19:06;38.13;;;5.28;;
53843;SDS011;39744;53.314;5.710;2022-12-24T16:21:48;35.15;;;4.10;;
53843;SDS011;39744;53.314;5.710;2022-12-24T16:26:45;36.80;;;5.57;;
53843;SDS011;39744;53.314;5.710;2022-12-24T16:29:12;30.52;;;4.93;;
53843;SDS011;39744;53.314;5.710;2022-12-24T16:31:43;32.72;;;5.63;;
53843;SDS011;39744;53.314;5.710;2022-12-24T16:34:15;31.70;;;5.10;;
53843;SDS011;39744;53.314;5.710;2022-12-24T16:36:44;29.90;;;5.03;;
53843;SDS011;39744;53.314;5.710;2022-12-24T16:39:15;31.67;;;5.05;;
53843;SDS011;39744;53.314;5.710;2022-12-24T16:41:53;32.08;;;5.00;;
53843;SDS011;39744;53.314;5.710;2022-12-24T16:44:39;35.83;;;4.65;;
53843;SDS011;39744;53.314;5.710;2022-12-24T16:47:05;36.03;;;4.68;;
53843;SDS011;39744;53.314;5.710;2022-12-24T16:49:39;34.33;;;5.30;;
53843;SDS011;39744;53.314;5.710;2022-12-24T16:52:06;35.60;;;5.10;;
53843;SDS011;39744;53.314;5.710;2022-12-24T16:54:38;37.53;;;5.93;;
53843;SDS011;39744;53.314;5.710;2022-12-24T16:57:10;31.77;;;4.95;;
53843;SDS011;39744;53.314;5.710;2022-12-24T16:59:36;29.17;;;4.90;;